sensor_id;sensor_type;location;lat;lon;timestamp;temperature;humidity
5059;DHT22;2548;52.050;11.036;2023-08-07T00:01:10;15.60;99.90
5059;DHT22;2548;52.050;11.036;2023-08-07T00:03:39;15.60;99.90
5059;DHT22;2548;52.050;11.036;2023-08-07T00:06:06;15.60;99.90
5059;DHT22;2548;52.050;11.036;2023-08-07T00:08:34;15.60;99.90
5059;DHT22;2548;52.050;11.036;2023-08-07T00:11:05;15.50;99.90
5059;DHT22;2548;52.050;11.036;2023-08-07T00:13:32;15.50;99.90
5059;DHT22;2548;52.050;11.036;2023-08-07T00:16:00;15.50;99.90
5059;DHT22;2548;52.050;11.036;2023-08-07T00:18:28;15.50;99.90
5059;DHT22;2548;52.050;11.036;2023-08-07T00:20:57;15.50;99.90
5059;DHT22;2548;52.050;11.036;2023-08-07T00:23:25;15.50;99.90
5059;DHT22;2548;52.050;11.036;2023-08-07T00:25:52;15.40;99.90
5059;DHT22;2548;52.050;11.036;2023-08-07T00:28:20;15.40;99.90
5059;DHT22;2548;52.050;11.036;2023-08-07T00:30:47;15.40;99.90
5059;DHT22;2548;52.050;11.036;2023-08-07T00:33:15;15.40;99.90
5059;DHT22;2548;52.050;11.036;2023-08-07T00:35:42;15.30;99.90
5059;DHT22;2548;52.050;11.036;2023-08-07T00:38:11;15.30;99.90
5059;DHT22;2548;52.050;11.036;2023-08-07T00:40:39;15.40;99.90
5059;DHT22;2548;52.050;11.036;2023-08-07T00:43:07;15.40;99.90
5059;DHT22;2548;52.050;11.036;2023-08-07T00:45:38;15.40;99.90
5059;DHT22;2548;52.050;11.036;2023-08-07T00:48:05;15.40;99.90
5059;DHT22;2548;52.050;11.036;2023-08-07T00:50:33;15.40;99.90
5059;DHT22;2548;52.050;11.036;2023-08-07T00:53:01;15.40;99.90
5059;DHT22;2548;52.050;11.036;2023-08-07T00:55:30;15.50;99.90
5059;DHT22;2548;52.050;11.036;2023-08-07T00:57:58;15.40;99.90
5059;DHT22;2548;52.050;11.036;2023-08-07T01:00:26;15.50;99.90
5059;DHT22;2548;52.050;11.036;2023-08-07T01:02:56;15.40;99.90
5059;DHT22;2548;52.050;11.036;2023-08-07T01:05:24;15.50;99.90
5059;DHT22;2548;52.050;11.036;2023-08-07T01:07:53;15.50;99.90
5059;DHT22;2548;52.050;11.036;2023-08-07T01:10:28;15.40;99.90
5059;DHT22;2548;52.050;11.036;2023-08-07T01:13:14;15.40;99.90
5059;DHT22;2548;52.050;11.036;2023-08-07T01:15:44;15.40;99.90
5059;DHT22;2548;52.050;11.036;2023-08-07T01:18:11;15.40;99.90
5059;DHT22;2548;52.050;11.036;2023-08-07T01:20:40;15.40;99.90
5059;DHT22;2548;52.050;11.036;2023-08-07T01:23:09;15.40;99.90
5059;DHT22;2548;52.050;11.036;2023-08-07T01:25:36;15.40;99.90
5059;DHT22;2548;52.050;11.036;2023-08-07T01:28:11;15.40;99.90
5059;DHT22;2548;52.050;11.036;2023-08-07T01:30:44;15.40;99.90
5059;DHT22;2548;52.050;11.036;2023-08-07T01:33:17;15.40;99.90
5059;DHT22;2548;52.050;11.036;2023-08-07T01:35:53;15.40;99.90
5059;DHT22;2548;52.050;11.036;2023-08-07T01:38:25;15.40;99.90
5059;DHT22;2548;52.050;11.036;2023-08-07T01:40:56;15.40;99.90
5059;DHT22;2548;52.050;11.036;2023-08-07T01:43:24;15.50;99.90
5059;DHT22;2548;52.050;11.036;2023-08-07T01:45:52;15.40;99.90
5059;DHT22;2548;52.050;11.036;2023-08-07T01:48:19;15.50;99.90
5059;DHT22;2548;52.050;11.036;2023-08-07T01:50:47;15.40;99.90
5059;DHT22;2548;52.050;11.036;2023-08-07T01:53:14;15.40;99.90
5059;DHT22;2548;52.050;11.036;2023-08-07T01:55:43;15.30;99.90
5059;DHT22;2548;52.050;11.036;2023-08-07T01:58:10;15.30;99.90
5059;DHT22;2548;52.050;11.036;2023-08-07T02:00:38;15.20;99.90
5059;DHT22;2548;52.050;11.036;2023-08-07T02:03:08;15.20;99.90
5059;DHT22;2548;52.050;11.036;2023-08-07T02:05:36;15.10;99.90
5059;DHT22;2548;52.050;11.036;2023-08-07T02:08:03;15.10;99.90
5059;DHT22;2548;52.050;11.036;2023-08-07T02:10:31;15.00;99.90
5059;DHT22;2548;52.050;11.036;2023-08-07T02:12:59;15.00;99.90
5059;DHT22;2548;52.050;11.036;2023-08-07T02:15:27;14.90;99.90
5059;DHT22;2548;52.050;11.036;2023-08-07T02:17:54;14.90;99.90
5059;DHT22;2548;52.050;11.036;2023-08-07T02:20:23;14.90;99.90
5059;DHT22;2548;52.050;11.036;2023-08-07T02:22:51;14.90;99.90
5059;DHT22;2548;52.050;11.036;2023-08-07T02:25:19;14.90;99.90
5059;DHT22;2548;52.050;11.036;2023-08-07T02:27:47;14.90;99.90
5059;DHT22;2548;52.050;11.036;2023-08-07T02:30:16;14.90;99.90
5059;DHT22;2548;52.050;11.036;2023-08-07T02:32:43;14.90;99.90
5059;DHT22;2548;52.050;11.036;2023-08-07T02:35:11;14.90;99.90
5059;DHT22;2548;52.050;11.036;2023-08-07T02:37:38;14.90;99.90
5059;DHT22;2548;52.050;11.036;2023-08-07T02:40:07;15.00;99.90
5059;DHT22;2548;52.050;11.036;2023-08-07T02:42:35;15.00;99.90
5059;DHT22;2548;52.050;11.036;2023-08-07T02:45:03;15.00;99.90
5059;DHT22;2548;52.050;11.036;2023-08-07T02:47:32;15.00;99.90
5059;DHT22;2548;52.050;11.036;2023-08-07T02:49:59;15.00;99.90
5059;DHT22;2548;52.050;11.036;2023-08-07T02:52:27;15.00;99.90
5059;DHT22;2548;52.050;11.036;2023-08-07T02:54:54;15.00;99.90
5059;DHT22;2548;52.050;11.036;2023-08-07T02:57:21;15.00;99.90
5059;DHT22;2548;52.050;11.036;2023-08-07T02:59:49;15.10;99.90
5059;DHT22;2548;52.050;11.036;2023-08-07T03:02:16;15.10;99.90
5059;DHT22;2548;52.050;11.036;2023-08-07T03:04:45;15.10;99.90
5059;DHT22;2548;52.050;11.036;2023-08-07T03:07:13;15.10;99.90
5059;DHT22;2548;52.050;11.036;2023-08-07T03:09:40;15.10;99.90
5059;DHT22;2548;52.050;11.036;2023-08-07T03:12:08;15.10;99.90
5059;DHT22;2548;52.050;11.036;2023-08-07T03:14:36;15.10;99.90
5059;DHT22;2548;52.050;11.036;2023-08-07T03:17:03;15.10;99.90
5059;DHT22;2548;52.050;11.036;2023-08-07T03:19:31;15.10;99.90
5059;DHT22;2548;52.050;11.036;2023-08-07T03:22:00;15.10;99.90
5059;DHT22;2548;52.050;11.036;2023-08-07T03:24:27;15.10;99.90
5059;DHT22;2548;52.050;11.036;2023-08-07T03:26:54;15.10;99.90
5059;DHT22;2548;52.050;11.036;2023-08-07T03:29:22;15.10;99.90
5059;DHT22;2548;52.050;11.036;2023-08-07T03:31:50;15.10;99.90
5059;DHT22;2548;52.050;11.036;2023-08-07T03:34:17;15.10;99.90
5059;DHT22;2548;52.050;11.036;2023-08-07T03:36:45;15.10;99.90
5059;DHT22;2548;52.050;11.036;2023-08-07T03:39:14;15.10;99.90
5059;DHT22;2548;52.050;11.036;2023-08-07T03:41:41;15.10;99.90
5059;DHT22;2548;52.050;11.036;2023-08-07T03:44:11;15.20;99.90
5059;DHT22;2548;52.050;11.036;2023-08-07T03:46:39;15.20;99.90
5059;DHT22;2548;52.050;11.036;2023-08-07T03:49:06;15.20;99.90
5059;DHT22;2548;52.050;11.036;2023-08-07T03:51:34;15.20;99.90
5059;DHT22;2548;52.050;11.036;2023-08-07T03:54:01;15.20;99.90
5059;DHT22;2548;52.050;11.036;2023-08-07T03:56:30;15.20;99.90
5059;DHT22;2548;52.050;11.036;2023-08-07T03:59:02;15.10;99.90
5059;DHT22;2548;52.050;11.036;2023-08-07T04:01:30;15.10;99.90
5059;DHT22;2548;52.050;11.036;2023-08-07T04:03:57;15.10;99.90
5059;DHT22;2548;52.050;11.036;2023-08-07T04:06:25;15.10;99.90
5059;DHT22;2548;52.050;11.036;2023-08-07T04:08:53;15.10;99.90
5059;DHT22;2548;52.050;11.036;2023-08-07T04:11:20;15.10;99.90
5059;DHT22;2548;52.050;11.036;2023-08-07T04:13:50;15.10;99.90
5059;DHT22;2548;52.050;11.036;2023-08-07T04:16:18;15.10;99.90
5059;DHT22;2548;52.050;11.036;2023-08-07T04:18:46;15.10;99.90
5059;DHT22;2548;52.050;11.036;2023-08-07T04:21:13;15.00;99.90
5059;DHT22;2548;52.050;11.036;2023-08-07T04:23:41;15.00;99.90
5059;DHT22;2548;52.050;11.036;2023-08-07T04:26:08;15.00;99.90
5059;DHT22;2548;52.050;11.036;2023-08-07T04:28:36;15.00;99.90
5059;DHT22;2548;52.050;11.036;2023-08-07T04:31:04;15.00;99.90
5059;DHT22;2548;52.050;11.036;2023-08-07T04:33:32;15.00;99.90
5059;DHT22;2548;52.050;11.036;2023-08-07T04:35:59;15.00;99.90
5059;DHT22;2548;52.050;11.036;2023-08-07T04:38:26;15.00;99.90
5059;DHT22;2548;52.050;11.036;2023-08-07T04:40:53;15.00;99.90
5059;DHT22;2548;52.050;11.036;2023-08-07T04:43:21;15.00;99.90
5059;DHT22;2548;52.050;11.036;2023-08-07T04:45:48;15.00;99.90
5059;DHT22;2548;52.050;11.036;2023-08-07T04:48:17;15.00;99.90
5059;DHT22;2548;52.050;11.036;2023-08-07T04:50:47;15.00;99.90
5059;DHT22;2548;52.050;11.036;2023-08-07T04:53:14;15.00;99.90
5059;DHT22;2548;52.050;11.036;2023-08-07T04:55:41;15.00;99.90
5059;DHT22;2548;52.050;11.036;2023-08-07T04:58:09;15.00;99.90
5059;DHT22;2548;52.050;11.036;2023-08-07T05:00:36;15.10;99.90
5059;DHT22;2548;52.050;11.036;2023-08-07T05:03:04;15.10;99.90
5059;DHT22;2548;52.050;11.036;2023-08-07T05:05:32;15.10;99.90
5059;DHT22;2548;52.050;11.036;2023-08-07T05:08:00;15.10;99.90
5059;DHT22;2548;52.050;11.036;2023-08-07T05:10:27;15.10;99.90
5059;DHT22;2548;52.050;11.036;2023-08-07T05:12:55;15.20;99.90
5059;DHT22;2548;52.050;11.036;2023-08-07T05:15:22;15.20;99.90
5059;DHT22;2548;52.050;11.036;2023-08-07T05:17:50;15.20;99.90
5059;DHT22;2548;52.050;11.036;2023-08-07T05:20:18;15.20;99.90
5059;DHT22;2548;52.050;11.036;2023-08-07T05:22:47;15.30;99.90
5059;DHT22;2548;52.050;11.036;2023-08-07T05:25:14;15.30;99.90
5059;DHT22;2548;52.050;11.036;2023-08-07T05:27:42;15.30;99.90
5059;DHT22;2548;52.050;11.036;2023-08-07T05:30:11;15.30;99.90
5059;DHT22;2548;52.050;11.036;2023-08-07T05:32:39;15.30;99.90
5059;DHT22;2548;52.050;11.036;2023-08-07T05:35:07;15.30;99.90
5059;DHT22;2548;52.050;11.036;2023-08-07T05:37:35;15.30;99.90
5059;DHT22;2548;52.050;11.036;2023-08-07T05:40:05;15.40;99.90
5059;DHT22;2548;52.050;11.036;2023-08-07T05:42:33;15.50;99.90
5059;DHT22;2548;52.050;11.036;2023-08-07T05:45:01;15.60;99.90
5059;DHT22;2548;52.050;11.036;2023-08-07T05:47:28;15.60;99.90
5059;DHT22;2548;52.050;11.036;2023-08-07T05:49:55;15.60;99.90
5059;DHT22;2548;52.050;11.036;2023-08-07T05:52:23;15.60;99.90
5059;DHT22;2548;52.050;11.036;2023-08-07T05:54:50;15.50;99.90
5059;DHT22;2548;52.050;11.036;2023-08-07T05:57:19;15.50;99.90
5059;DHT22;2548;52.050;11.036;2023-08-07T05:59:47;15.50;99.90
5059;DHT22;2548;52.050;11.036;2023-08-07T06:02:14;15.50;99.90
5059;DHT22;2548;52.050;11.036;2023-08-07T06:04:41;15.40;99.90
5059;DHT22;2548;52.050;11.036;2023-08-07T06:07:09;15.40;99.90
5059;DHT22;2548;52.050;11.036;2023-08-07T06:09:37;15.40;99.90
5059;DHT22;2548;52.050;11.036;2023-08-07T06:12:05;15.40;99.90
5059;DHT22;2548;52.050;11.036;2023-08-07T06:14:33;15.40;99.90
5059;DHT22;2548;52.050;11.036;2023-08-07T06:17:01;15.40;99.90
5059;DHT22;2548;52.050;11.036;2023-08-07T06:19:28;15.40;99.90
5059;DHT22;2548;52.050;11.036;2023-08-07T06:21:55;15.30;99.90
5059;DHT22;2548;52.050;11.036;2023-08-07T06:24:23;15.30;99.90
5059;DHT22;2548;52.050;11.036;2023-08-07T06:26:51;15.30;99.90
5059;DHT22;2548;52.050;11.036;2023-08-07T06:29:19;15.30;99.90
5059;DHT22;2548;52.050;11.036;2023-08-07T06:31:48;15.30;99.90
5059;DHT22;2548;52.050;11.036;2023-08-07T06:34:15;15.30;99.90
5059;DHT22;2548;52.050;11.036;2023-08-07T06:36:42;15.30;99.90
5059;DHT22;2548;52.050;11.036;2023-08-07T06:39:10;15.20;99.90
5059;DHT22;2548;52.050;11.036;2023-08-07T06:41:37;15.20;99.90
5059;DHT22;2548;52.050;11.036;2023-08-07T06:44:05;15.20;99.90
5059;DHT22;2548;52.050;11.036;2023-08-07T06:46:32;15.20;99.90
5059;DHT22;2548;52.050;11.036;2023-08-07T06:49:01;15.20;99.90
5059;DHT22;2548;52.050;11.036;2023-08-07T06:51:29;15.10;99.90
5059;DHT22;2548;52.050;11.036;2023-08-07T06:53:56;15.10;99.90
5059;DHT22;2548;52.050;11.036;2023-08-07T06:56:24;15.10;99.90
5059;DHT22;2548;52.050;11.036;2023-08-07T06:58:51;15.10;99.90
5059;DHT22;2548;52.050;11.036;2023-08-07T07:01:18;15.20;99.90
5059;DHT22;2548;52.050;11.036;2023-08-07T07:03:46;15.20;99.90
5059;DHT22;2548;52.050;11.036;2023-08-07T07:06:19;15.30;99.90
5059;DHT22;2548;52.050;11.036;2023-08-07T07:08:49;15.30;99.90
5059;DHT22;2548;52.050;11.036;2023-08-07T07:11:16;15.30;99.90
5059;DHT22;2548;52.050;11.036;2023-08-07T07:13:44;15.30;99.90
5059;DHT22;2548;52.050;11.036;2023-08-07T07:16:11;15.30;99.90
5059;DHT22;2548;52.050;11.036;2023-08-07T07:18:39;15.30;99.90
5059;DHT22;2548;52.050;11.036;2023-08-07T07:21:07;15.30;99.90
5059;DHT22;2548;52.050;11.036;2023-08-07T07:23:35;15.30;99.90
5059;DHT22;2548;52.050;11.036;2023-08-07T07:26:03;15.20;99.90
5059;DHT22;2548;52.050;11.036;2023-08-07T07:28:30;15.30;99.90
5059;DHT22;2548;52.050;11.036;2023-08-07T07:30:58;15.30;99.90
5059;DHT22;2548;52.050;11.036;2023-08-07T07:33:25;15.30;99.90
5059;DHT22;2548;52.050;11.036;2023-08-07T07:35:54;15.30;99.90
5059;DHT22;2548;52.050;11.036;2023-08-07T07:38:21;15.30;99.90
5059;DHT22;2548;52.050;11.036;2023-08-07T07:40:50;15.20;99.90
5059;DHT22;2548;52.050;11.036;2023-08-07T07:43:19;15.20;99.90
5059;DHT22;2548;52.050;11.036;2023-08-07T07:45:46;15.00;99.90
5059;DHT22;2548;52.050;11.036;2023-08-07T07:48:14;14.90;99.90
5059;DHT22;2548;52.050;11.036;2023-08-07T07:50:41;14.80;99.90
5059;DHT22;2548;52.050;11.036;2023-08-07T07:53:09;14.80;99.90
5059;DHT22;2548;52.050;11.036;2023-08-07T07:55:36;14.90;99.90
5059;DHT22;2548;52.050;11.036;2023-08-07T07:58:05;15.00;99.90
5059;DHT22;2548;52.050;11.036;2023-08-07T08:00:33;15.10;99.90
5059;DHT22;2548;52.050;11.036;2023-08-07T08:03:00;15.20;99.90
5059;DHT22;2548;52.050;11.036;2023-08-07T08:05:28;15.30;99.90
5059;DHT22;2548;52.050;11.036;2023-08-07T08:07:55;15.30;99.90
5059;DHT22;2548;52.050;11.036;2023-08-07T08:10:23;15.40;99.90
5059;DHT22;2548;52.050;11.036;2023-08-07T08:12:51;15.60;99.90
5059;DHT22;2548;52.050;11.036;2023-08-07T08:15:20;15.70;99.90
5059;DHT22;2548;52.050;11.036;2023-08-07T08:17:48;15.80;99.90
5059;DHT22;2548;52.050;11.036;2023-08-07T08:20:16;16.00;99.90
5059;DHT22;2548;52.050;11.036;2023-08-07T08:22:44;16.20;99.90
5059;DHT22;2548;52.050;11.036;2023-08-07T08:25:11;16.30;99.90
5059;DHT22;2548;52.050;11.036;2023-08-07T08:27:39;16.40;99.90
5059;DHT22;2548;52.050;11.036;2023-08-07T08:30:07;16.50;99.90
5059;DHT22;2548;52.050;11.036;2023-08-07T08:32:36;16.60;99.90
5059;DHT22;2548;52.050;11.036;2023-08-07T08:35:04;16.60;99.90
5059;DHT22;2548;52.050;11.036;2023-08-07T08:37:32;16.50;99.90
5059;DHT22;2548;52.050;11.036;2023-08-07T08:39:59;16.50;99.90
5059;DHT22;2548;52.050;11.036;2023-08-07T08:42:27;16.50;99.90
5059;DHT22;2548;52.050;11.036;2023-08-07T08:44:55;16.70;99.90
5059;DHT22;2548;52.050;11.036;2023-08-07T08:47:26;16.80;99.90
5059;DHT22;2548;52.050;11.036;2023-08-07T08:50:00;17.10;99.90
5059;DHT22;2548;52.050;11.036;2023-08-07T08:52:29;17.20;99.90
5059;DHT22;2548;52.050;11.036;2023-08-07T08:54:58;17.10;99.90
5059;DHT22;2548;52.050;11.036;2023-08-07T08:57:26;17.00;99.90
5059;DHT22;2548;52.050;11.036;2023-08-07T08:59:55;16.90;99.90
5059;DHT22;2548;52.050;11.036;2023-08-07T09:02:23;17.10;99.90
5059;DHT22;2548;52.050;11.036;2023-08-07T09:04:51;17.30;99.90
5059;DHT22;2548;52.050;11.036;2023-08-07T09:07:20;17.30;99.90
5059;DHT22;2548;52.050;11.036;2023-08-07T09:09:49;17.30;99.90
5059;DHT22;2548;52.050;11.036;2023-08-07T09:12:20;17.30;99.90
5059;DHT22;2548;52.050;11.036;2023-08-07T09:14:52;17.30;99.90
5059;DHT22;2548;52.050;11.036;2023-08-07T09:17:24;17.50;99.90
5059;DHT22;2548;52.050;11.036;2023-08-07T09:19:52;17.70;99.90
5059;DHT22;2548;52.050;11.036;2023-08-07T09:22:21;17.90;99.90
5059;DHT22;2548;52.050;11.036;2023-08-07T09:24:48;18.00;99.90
5059;DHT22;2548;52.050;11.036;2023-08-07T09:27:16;18.10;99.90
5059;DHT22;2548;52.050;11.036;2023-08-07T09:29:46;18.10;99.90
5059;DHT22;2548;52.050;11.036;2023-08-07T09:32:14;18.30;99.90
5059;DHT22;2548;52.050;11.036;2023-08-07T09:34:42;18.30;99.90
5059;DHT22;2548;52.050;11.036;2023-08-07T09:37:10;18.30;99.90
5059;DHT22;2548;52.050;11.036;2023-08-07T09:39:40;18.40;99.90
5059;DHT22;2548;52.050;11.036;2023-08-07T09:42:13;18.50;99.90
5059;DHT22;2548;52.050;11.036;2023-08-07T09:44:41;18.60;99.90
5059;DHT22;2548;52.050;11.036;2023-08-07T09:47:12;18.70;99.90
5059;DHT22;2548;52.050;11.036;2023-08-07T09:49:40;18.60;99.90
5059;DHT22;2548;52.050;11.036;2023-08-07T09:52:09;18.40;99.90
5059;DHT22;2548;52.050;11.036;2023-08-07T09:54:40;18.30;99.90
5059;DHT22;2548;52.050;11.036;2023-08-07T09:57:08;18.10;99.90
5059;DHT22;2548;52.050;11.036;2023-08-07T09:59:36;18.30;99.90
5059;DHT22;2548;52.050;11.036;2023-08-07T10:02:04;18.30;99.90
5059;DHT22;2548;52.050;11.036;2023-08-07T10:04:32;18.30;99.90
5059;DHT22;2548;52.050;11.036;2023-08-07T10:07:01;18.10;99.90
5059;DHT22;2548;52.050;11.036;2023-08-07T10:09:29;18.00;99.90
5059;DHT22;2548;52.050;11.036;2023-08-07T10:11:59;17.90;99.90
5059;DHT22;2548;52.050;11.036;2023-08-07T10:14:26;17.70;99.90
5059;DHT22;2548;52.050;11.036;2023-08-07T10:16:54;17.60;99.90
5059;DHT22;2548;52.050;11.036;2023-08-07T10:19:22;17.50;99.90
5059;DHT22;2548;52.050;11.036;2023-08-07T10:21:50;17.40;99.90
5059;DHT22;2548;52.050;11.036;2023-08-07T10:24:19;17.20;99.90
5059;DHT22;2548;52.050;11.036;2023-08-07T10:26:47;17.20;99.90
5059;DHT22;2548;52.050;11.036;2023-08-07T10:29:19;17.10;99.90
5059;DHT22;2548;52.050;11.036;2023-08-07T10:31:48;17.10;99.90
5059;DHT22;2548;52.050;11.036;2023-08-07T10:34:16;17.00;99.90
5059;DHT22;2548;52.050;11.036;2023-08-07T10:36:44;16.90;99.90
5059;DHT22;2548;52.050;11.036;2023-08-07T10:39:12;16.80;99.90
5059;DHT22;2548;52.050;11.036;2023-08-07T10:41:45;16.70;99.90
5059;DHT22;2548;52.050;11.036;2023-08-07T10:44:21;16.70;99.90
5059;DHT22;2548;52.050;11.036;2023-08-07T10:46:52;16.70;99.90
5059;DHT22;2548;52.050;11.036;2023-08-07T10:49:33;16.70;99.90
5059;DHT22;2548;52.050;11.036;2023-08-07T10:52:08;16.80;99.90
5059;DHT22;2548;52.050;11.036;2023-08-07T10:54:39;16.80;99.90
5059;DHT22;2548;52.050;11.036;2023-08-07T10:57:12;16.90;99.90
5059;DHT22;2548;52.050;11.036;2023-08-07T10:59:49;17.00;99.90
5059;DHT22;2548;52.050;11.036;2023-08-07T11:02:23;16.90;99.90
5059;DHT22;2548;52.050;11.036;2023-08-07T11:04:52;16.90;99.90
5059;DHT22;2548;52.050;11.036;2023-08-07T11:07:24;17.10;99.90
5059;DHT22;2548;52.050;11.036;2023-08-07T11:09:51;17.20;99.90
5059;DHT22;2548;52.050;11.036;2023-08-07T11:12:19;17.50;99.90
5059;DHT22;2548;52.050;11.036;2023-08-07T11:14:48;17.70;99.90
5059;DHT22;2548;52.050;11.036;2023-08-07T11:17:16;17.90;99.90
5059;DHT22;2548;52.050;11.036;2023-08-07T11:19:46;18.00;99.90
5059;DHT22;2548;52.050;11.036;2023-08-07T11:22:15;18.00;99.90
5059;DHT22;2548;52.050;11.036;2023-08-07T11:24:43;18.00;99.90
5059;DHT22;2548;52.050;11.036;2023-08-07T11:27:10;18.00;99.90
5059;DHT22;2548;52.050;11.036;2023-08-07T11:29:38;18.00;99.90
5059;DHT22;2548;52.050;11.036;2023-08-07T11:32:08;17.90;99.90
5059;DHT22;2548;52.050;11.036;2023-08-07T11:34:36;17.80;99.90
5059;DHT22;2548;52.050;11.036;2023-08-07T11:37:03;17.50;99.90
5059;DHT22;2548;52.050;11.036;2023-08-07T11:39:31;17.30;99.90
5059;DHT22;2548;52.050;11.036;2023-08-07T11:42:00;17.50;99.90
5059;DHT22;2548;52.050;11.036;2023-08-07T11:44:27;17.80;99.90
5059;DHT22;2548;52.050;11.036;2023-08-07T11:46:55;18.00;99.90
5059;DHT22;2548;52.050;11.036;2023-08-07T11:49:24;18.30;99.90
5059;DHT22;2548;52.050;11.036;2023-08-07T11:51:51;18.30;99.90
5059;DHT22;2548;52.050;11.036;2023-08-07T11:54:19;18.50;99.90
5059;DHT22;2548;52.050;11.036;2023-08-07T11:56:46;18.40;99.90
5059;DHT22;2548;52.050;11.036;2023-08-07T11:59:16;18.20;99.90
5059;DHT22;2548;52.050;11.036;2023-08-07T12:01:46;18.10;99.90
5059;DHT22;2548;52.050;11.036;2023-08-07T12:04:13;18.30;99.90
5059;DHT22;2548;52.050;11.036;2023-08-07T12:06:52;18.50;99.90
5059;DHT22;2548;52.050;11.036;2023-08-07T12:09:20;18.40;99.90
5059;DHT22;2548;52.050;11.036;2023-08-07T12:11:48;18.30;99.90
5059;DHT22;2548;52.050;11.036;2023-08-07T12:14:16;18.40;99.90
5059;DHT22;2548;52.050;11.036;2023-08-07T12:16:44;18.30;99.90
5059;DHT22;2548;52.050;11.036;2023-08-07T12:19:12;18.10;99.90
5059;DHT22;2548;52.050;11.036;2023-08-07T12:21:40;17.90;99.90
5059;DHT22;2548;52.050;11.036;2023-08-07T12:24:09;17.60;99.90
5059;DHT22;2548;52.050;11.036;2023-08-07T12:26:37;17.30;99.90
5059;DHT22;2548;52.050;11.036;2023-08-07T12:29:04;17.10;99.90
5059;DHT22;2548;52.050;11.036;2023-08-07T12:31:32;16.90;99.90
5059;DHT22;2548;52.050;11.036;2023-08-07T12:33:59;16.80;99.90
5059;DHT22;2548;52.050;11.036;2023-08-07T12:36:26;16.70;99.90
5059;DHT22;2548;52.050;11.036;2023-08-07T12:38:54;16.50;99.90
5059;DHT22;2548;52.050;11.036;2023-08-07T12:41:23;16.60;99.90
5059;DHT22;2548;52.050;11.036;2023-08-07T12:43:50;16.80;99.90
5059;DHT22;2548;52.050;11.036;2023-08-07T12:46:17;16.90;99.90
5059;DHT22;2548;52.050;11.036;2023-08-07T12:48:45;16.80;99.90
5059;DHT22;2548;52.050;11.036;2023-08-07T12:51:12;16.80;99.90
5059;DHT22;2548;52.050;11.036;2023-08-07T12:53:40;16.70;99.90
5059;DHT22;2548;52.050;11.036;2023-08-07T12:56:07;16.70;99.90
5059;DHT22;2548;52.050;11.036;2023-08-07T12:58:36;16.50;99.90
5059;DHT22;2548;52.050;11.036;2023-08-07T13:01:04;16.40;99.90
5059;DHT22;2548;52.050;11.036;2023-08-07T13:03:32;16.40;99.90
5059;DHT22;2548;52.050;11.036;2023-08-07T13:05:59;16.20;99.90
5059;DHT22;2548;52.050;11.036;2023-08-07T13:08:27;16.20;99.90
5059;DHT22;2548;52.050;11.036;2023-08-07T13:10:54;16.10;99.90
5059;DHT22;2548;52.050;11.036;2023-08-07T13:13:21;16.20;99.90
5059;DHT22;2548;52.050;11.036;2023-08-07T13:15:50;16.20;99.90
5059;DHT22;2548;52.050;11.036;2023-08-07T13:18:18;16.30;99.90
5059;DHT22;2548;52.050;11.036;2023-08-07T13:20:45;16.50;99.90
5059;DHT22;2548;52.050;11.036;2023-08-07T13:23:13;16.70;99.90
5059;DHT22;2548;52.050;11.036;2023-08-07T13:25:41;16.80;99.90
5059;DHT22;2548;52.050;11.036;2023-08-07T13:28:08;17.20;99.90
5059;DHT22;2548;52.050;11.036;2023-08-07T13:30:36;17.50;99.90
5059;DHT22;2548;52.050;11.036;2023-08-07T13:33:05;17.90;99.90
5059;DHT22;2548;52.050;11.036;2023-08-07T13:35:32;18.20;99.90
5059;DHT22;2548;52.050;11.036;2023-08-07T13:37:59;18.30;99.90
5059;DHT22;2548;52.050;11.036;2023-08-07T13:40:31;18.50;99.90
5059;DHT22;2548;52.050;11.036;2023-08-07T13:42:58;18.30;99.90
5059;DHT22;2548;52.050;11.036;2023-08-07T13:45:29;18.40;99.90
5059;DHT22;2548;52.050;11.036;2023-08-07T13:47:56;18.30;99.90
5059;DHT22;2548;52.050;11.036;2023-08-07T13:50:25;18.20;99.90
5059;DHT22;2548;52.050;11.036;2023-08-07T13:52:52;17.90;99.90
5059;DHT22;2548;52.050;11.036;2023-08-07T13:55:20;17.50;99.90
5059;DHT22;2548;52.050;11.036;2023-08-07T13:57:47;17.30;99.90
5059;DHT22;2548;52.050;11.036;2023-08-07T14:00:15;17.00;99.90
5059;DHT22;2548;52.050;11.036;2023-08-07T14:02:42;16.60;99.90
5059;DHT22;2548;52.050;11.036;2023-08-07T14:05:10;16.60;99.90
5059;DHT22;2548;52.050;11.036;2023-08-07T14:07:38;16.60;99.90
5059;DHT22;2548;52.050;11.036;2023-08-07T14:10:06;16.50;99.90
5059;DHT22;2548;52.050;11.036;2023-08-07T14:12:34;16.50;99.90
5059;DHT22;2548;52.050;11.036;2023-08-07T14:15:01;16.50;99.90
5059;DHT22;2548;52.050;11.036;2023-08-07T14:17:29;16.80;99.90
5059;DHT22;2548;52.050;11.036;2023-08-07T14:19:56;17.10;99.90
5059;DHT22;2548;52.050;11.036;2023-08-07T14:22:24;17.50;99.90
5059;DHT22;2548;52.050;11.036;2023-08-07T14:24:53;17.70;99.90
5059;DHT22;2548;52.050;11.036;2023-08-07T14:27:20;17.90;99.90
5059;DHT22;2548;52.050;11.036;2023-08-07T14:29:47;18.10;99.90
5059;DHT22;2548;52.050;11.036;2023-08-07T14:32:15;18.10;99.90
5059;DHT22;2548;52.050;11.036;2023-08-07T14:34:42;18.10;99.90
5059;DHT22;2548;52.050;11.036;2023-08-07T14:37:09;18.00;99.90
5059;DHT22;2548;52.050;11.036;2023-08-07T14:39:37;17.90;99.90
5059;DHT22;2548;52.050;11.036;2023-08-07T14:42:06;17.80;99.90
5059;DHT22;2548;52.050;11.036;2023-08-07T14:44:34;17.70;99.90
5059;DHT22;2548;52.050;11.036;2023-08-07T14:47:02;17.50;99.90
5059;DHT22;2548;52.050;11.036;2023-08-07T14:49:30;17.50;99.90
5059;DHT22;2548;52.050;11.036;2023-08-07T14:51:57;17.50;99.90
5059;DHT22;2548;52.050;11.036;2023-08-07T14:54:25;17.60;99.90
5059;DHT22;2548;52.050;11.036;2023-08-07T14:56:52;17.70;99.90
5059;DHT22;2548;52.050;11.036;2023-08-07T14:59:21;17.90;99.90
5059;DHT22;2548;52.050;11.036;2023-08-07T15:01:48;18.20;99.90
5059;DHT22;2548;52.050;11.036;2023-08-07T15:04:16;18.40;99.90
5059;DHT22;2548;52.050;11.036;2023-08-07T15:06:43;18.60;99.90
5059;DHT22;2548;52.050;11.036;2023-08-07T15:09:14;18.60;99.90
5059;DHT22;2548;52.050;11.036;2023-08-07T15:11:43;18.50;99.90
5059;DHT22;2548;52.050;11.036;2023-08-07T15:14:10;18.60;99.90
5059;DHT22;2548;52.050;11.036;2023-08-07T15:16:39;18.80;99.90
5059;DHT22;2548;52.050;11.036;2023-08-07T15:19:07;19.00;99.90
5059;DHT22;2548;52.050;11.036;2023-08-07T15:21:34;18.80;99.90
5059;DHT22;2548;52.050;11.036;2023-08-07T15:24:02;18.60;99.90
5059;DHT22;2548;52.050;11.036;2023-08-07T15:26:29;18.30;99.90
5059;DHT22;2548;52.050;11.036;2023-08-07T15:28:57;18.00;99.90
5059;DHT22;2548;52.050;11.036;2023-08-07T15:31:24;17.90;99.90
5059;DHT22;2548;52.050;11.036;2023-08-07T15:33:53;17.70;99.90
5059;DHT22;2548;52.050;11.036;2023-08-07T15:36:22;17.60;99.90
5059;DHT22;2548;52.050;11.036;2023-08-07T15:38:49;17.50;99.90
5059;DHT22;2548;52.050;11.036;2023-08-07T15:41:17;17.60;99.90
5059;DHT22;2548;52.050;11.036;2023-08-07T15:43:44;17.80;99.90
5059;DHT22;2548;52.050;11.036;2023-08-07T15:46:12;18.00;99.90
5059;DHT22;2548;52.050;11.036;2023-08-07T15:48:39;18.40;99.90
5059;DHT22;2548;52.050;11.036;2023-08-07T15:51:08;18.50;99.90